sensor_id;sensor_type;location;lat;lon;timestamp;P1;durP1;ratioP1;P2;durP2;ratioP2
5054;SDS011;13829;48.990;8.346;2022-12-07T00:01:29;12.67;;;9.73;;
5054;SDS011;13829;48.990;8.346;2022-12-07T00:03:59;13.23;;;9.73;;
5054;SDS011;13829;48.990;8.346;2022-12-07T00:06:30;11.90;;;9.60;;
5054;SDS011;13829;48.990;8.346;2022-12-07T00:08:58;13.63;;;9.83;;
5054;SDS011;13829;48.990;8.346;2022-12-07T00:11:25;12.80;;;9.47;;
5054;SDS011;13829;48.990;8.346;2022-12-07T00:13:53;12.17;;;9.70;;
5054;SDS011;13829;48.990;8.346;2022-12-07T00:16:24;13.17;;;10.03;;
5054;SDS011;13829;48.990;8.346;2022-12-07T00:18:55;12.93;;;9.90;;
5054;SDS011;13829;48.990;8.346;2022-12-07T00:21:24;14.20;;;10.53;;
5054;SDS011;13829;48.990;8.346;2022-12-07T00:23:53;12.27;;;10.10;;
5054;SDS011;13829;48.990;8.346;2022-12-07T00:26:22;11.67;;;9.73;;
5054;SDS011;13829;48.990;8.346;2022-12-07T00:28:52;13.23;;;10.00;;
5054;SDS011;13829;48.990;8.346;2022-12-07T00:31:23;11.87;;;10.23;;
5054;SDS011;13829;48.990;8.346;2022-12-07T00:33:52;12.97;;;10.57;;
5054;SDS011;13829;48.990;8.346;2022-12-07T00:36:21;13.13;;;10.03;;
5054;SDS011;13829;48.990;8.346;2022-12-07T00:38:49;12.33;;;9.60;;
5054;SDS011;13829;48.990;8.346;2022-12-07T00:41:18;13.33;;;9.80;;
5054;SDS011;13829;48.990;8.346;2022-12-07T00:43:47;13.57;;;10.57;;
5054;SDS011;13829;48.990;8.346;2022-12-07T00:46:16;13.20;;;9.57;;
5054;SDS011;13829;48.990;8.346;2022-12-07T00:48:45;12.50;;;10.10;;
5054;SDS011;13829;48.990;8.346;2022-12-07T00:51:13;11.60;;;9.53;;
5054;SDS011;13829;48.990;8.346;2022-12-07T00:53:44;12.43;;;9.53;;
5054;SDS011;13829;48.990;8.346;2022-12-07T00:56:12;12.03;;;9.63;;
5054;SDS011;13829;48.990;8.346;2022-12-07T00:58:41;12.63;;;9.77;;
5054;SDS011;13829;48.990;8.346;2022-12-07T01:01:09;16.23;;;11.17;;
5054;SDS011;13829;48.990;8.346;2022-12-07T01:03:37;12.97;;;9.73;;
5054;SDS011;13829;48.990;8.346;2022-12-07T01:06:04;12.73;;;10.63;;
5054;SDS011;13829;48.990;8.346;2022-12-07T01:08:32;16.17;;;10.47;;
5054;SDS011;13829;48.990;8.346;2022-12-07T01:11:01;14.93;;;10.87;;
5054;SDS011;13829;48.990;8.346;2022-12-07T01:13:31;14.60;;;10.93;;
5054;SDS011;13829;48.990;8.346;2022-12-07T01:16:01;16.10;;;11.67;;
5054;SDS011;13829;48.990;8.346;2022-12-07T01:18:32;12.73;;;10.70;;
5054;SDS011;13829;48.990;8.346;2022-12-07T01:21:02;16.37;;;11.47;;
5054;SDS011;13829;48.990;8.346;2022-12-07T01:23:31;15.47;;;11.53;;
5054;SDS011;13829;48.990;8.346;2022-12-07T01:26:01;13.57;;;10.90;;
5054;SDS011;13829;48.990;8.346;2022-12-07T01:28:31;14.87;;;10.20;;
5054;SDS011;13829;48.990;8.346;2022-12-07T01:30:59;14.90;;;10.97;;
5054;SDS011;13829;48.990;8.346;2022-12-07T01:33:30;15.07;;;10.67;;
5054;SDS011;13829;48.990;8.346;2022-12-07T01:36:03;13.37;;;10.17;;
5054;SDS011;13829;48.990;8.346;2022-12-07T01:38:32;14.17;;;10.70;;
5054;SDS011;13829;48.990;8.346;2022-12-07T01:41:01;13.63;;;10.97;;
5054;SDS011;13829;48.990;8.346;2022-12-07T01:43:29;16.70;;;11.40;;
5054;SDS011;13829;48.990;8.346;2022-12-07T01:45:58;14.60;;;11.30;;
5054;SDS011;13829;48.990;8.346;2022-12-07T01:48:27;14.83;;;11.47;;
5054;SDS011;13829;48.990;8.346;2022-12-07T01:51:00;13.77;;;11.17;;
5054;SDS011;13829;48.990;8.346;2022-12-07T01:53:32;13.40;;;10.37;;
5054;SDS011;13829;48.990;8.346;2022-12-07T01:56:05;13.83;;;10.87;;
5054;SDS011;13829;48.990;8.346;2022-12-07T01:58:36;13.83;;;10.93;;
5054;SDS011;13829;48.990;8.346;2022-12-07T02:01:03;14.93;;;11.40;;
5054;SDS011;13829;48.990;8.346;2022-12-07T02:03:31;14.53;;;11.10;;
5054;SDS011;13829;48.990;8.346;2022-12-07T02:06:04;16.30;;;11.37;;
5054;SDS011;13829;48.990;8.346;2022-12-07T02:08:32;16.77;;;12.00;;
5054;SDS011;13829;48.990;8.346;2022-12-07T02:11:00;16.97;;;12.03;;
5054;SDS011;13829;48.990;8.346;2022-12-07T02:13:31;14.60;;;10.77;;
5054;SDS011;13829;48.990;8.346;2022-12-07T02:16:08;14.47;;;11.03;;
5054;SDS011;13829;48.990;8.346;2022-12-07T02:18:57;15.83;;;11.43;;
5054;SDS011;13829;48.990;8.346;2022-12-07T02:21:51;15.13;;;10.97;;
5054;SDS011;13829;48.990;8.346;2022-12-07T02:24:29;15.67;;;12.00;;
5054;SDS011;13829;48.990;8.346;2022-12-07T02:30:13;19.77;;;11.17;;
5054;SDS011;13829;48.990;8.346;2022-12-07T02:32:49;14.43;;;11.17;;
5054;SDS011;13829;48.990;8.346;2022-12-07T02:35:24;14.40;;;10.80;;
5054;SDS011;13829;48.990;8.346;2022-12-07T02:38:01;15.17;;;12.17;;
5054;SDS011;13829;48.990;8.346;2022-12-07T02:40:38;15.13;;;10.63;;
5054;SDS011;13829;48.990;8.346;2022-12-07T02:43:10;15.13;;;11.37;;
5054;SDS011;13829;48.990;8.346;2022-12-07T02:45:44;15.90;;;11.60;;
5054;SDS011;13829;48.990;8.346;2022-12-07T02:48:13;15.23;;;11.53;;
5054;SDS011;13829;48.990;8.346;2022-12-07T02:50:45;18.27;;;12.60;;
5054;SDS011;13829;48.990;8.346;2022-12-07T02:53:28;14.93;;;10.87;;
5054;SDS011;13829;48.990;8.346;2022-12-07T02:55:57;15.50;;;11.83;;
5054;SDS011;13829;48.990;8.346;2022-12-07T02:58:32;16.13;;;11.43;;
5054;SDS011;13829;48.990;8.346;2022-12-07T03:01:20;16.13;;;12.20;;
5054;SDS011;13829;48.990;8.346;2022-12-07T03:03:58;15.97;;;11.80;;
5054;SDS011;13829;48.990;8.346;2022-12-07T03:06:39;14.50;;;10.77;;
5054;SDS011;13829;48.990;8.346;2022-12-07T03:09:19;14.97;;;11.33;;
5054;SDS011;13829;48.990;8.346;2022-12-07T03:12:00;14.10;;;11.13;;
5054;SDS011;13829;48.990;8.346;2022-12-07T03:14:38;13.87;;;11.03;;
5054;SDS011;13829;48.990;8.346;2022-12-07T03:17:14;15.30;;;12.10;;
5054;SDS011;13829;48.990;8.346;2022-12-07T03:19:46;18.77;;;11.93;;
5054;SDS011;13829;48.990;8.346;2022-12-07T03:22:20;15.73;;;11.77;;
5054;SDS011;13829;48.990;8.346;2022-12-07T03:24:50;15.90;;;12.07;;
5054;SDS011;13829;48.990;8.346;2022-12-07T03:27:24;16.30;;;12.47;;
5054;SDS011;13829;48.990;8.346;2022-12-07T03:29:58;15.90;;;12.00;;
5054;SDS011;13829;48.990;8.346;2022-12-07T03:32:32;17.20;;;12.20;;
5054;SDS011;13829;48.990;8.346;2022-12-07T03:35:07;14.63;;;11.80;;
5054;SDS011;13829;48.990;8.346;2022-12-07T03:37:43;18.63;;;13.10;;
5054;SDS011;13829;48.990;8.346;2022-12-07T03:40:18;15.17;;;11.77;;
5054;SDS011;13829;48.990;8.346;2022-12-07T03:42:52;14.17;;;11.57;;
5054;SDS011;13829;48.990;8.346;2022-12-07T03:45:22;15.27;;;12.57;;
5054;SDS011;13829;48.990;8.346;2022-12-07T03:48:02;16.17;;;11.63;;
5054;SDS011;13829;48.990;8.346;2022-12-07T03:50:38;19.43;;;12.73;;
5054;SDS011;13829;48.990;8.346;2022-12-07T03:53:15;14.47;;;11.50;;
5054;SDS011;13829;48.990;8.346;2022-12-07T03:55:46;15.47;;;12.03;;
5054;SDS011;13829;48.990;8.346;2022-12-07T03:58:17;17.80;;;11.70;;
5054;SDS011;13829;48.990;8.346;2022-12-07T04:00:48;15.70;;;12.47;;
5054;SDS011;13829;48.990;8.346;2022-12-07T04:03:18;16.97;;;12.30;;
5054;SDS011;13829;48.990;8.346;2022-12-07T04:05:45;13.87;;;11.07;;
5054;SDS011;13829;48.990;8.346;2022-12-07T04:08:12;16.30;;;12.50;;
5054;SDS011;13829;48.990;8.346;2022-12-07T04:10:39;17.83;;;12.90;;
5054;SDS011;13829;48.990;8.346;2022-12-07T04:13:06;16.93;;;12.00;;
5054;SDS011;13829;48.990;8.346;2022-12-07T04:15:33;17.13;;;12.33;;
5054;SDS011;13829;48.990;8.346;2022-12-07T04:17:59;18.37;;;12.77;;
5054;SDS011;13829;48.990;8.346;2022-12-07T04:20:28;14.37;;;12.17;;
5054;SDS011;13829;48.990;8.346;2022-12-07T04:22:55;15.87;;;12.17;;
5054;SDS011;13829;48.990;8.346;2022-12-07T04:25:22;15.93;;;12.33;;
5054;SDS011;13829;48.990;8.346;2022-12-07T04:27:48;15.47;;;12.23;;
5054;SDS011;13829;48.990;8.346;2022-12-07T04:30:15;15.23;;;12.40;;
5054;SDS011;13829;48.990;8.346;2022-12-07T04:32:43;16.07;;;11.83;;
5054;SDS011;13829;48.990;8.346;2022-12-07T04:35:09;12.87;;;10.70;;
5054;SDS011;13829;48.990;8.346;2022-12-07T04:37:38;16.13;;;11.70;;
5054;SDS011;13829;48.990;8.346;2022-12-07T04:40:05;16.33;;;12.03;;
5054;SDS011;13829;48.990;8.346;2022-12-07T04:42:36;16.97;;;12.33;;
5054;SDS011;13829;48.990;8.346;2022-12-07T04:45:03;17.60;;;11.87;;
5054;SDS011;13829;48.990;8.346;2022-12-07T04:47:31;16.73;;;12.70;;
5054;SDS011;13829;48.990;8.346;2022-12-07T04:49:58;18.30;;;12.63;;
5054;SDS011;13829;48.990;8.346;2022-12-07T04:52:25;16.23;;;12.57;;
5054;SDS011;13829;48.990;8.346;2022-12-07T04:54:53;15.43;;;11.53;;
5054;SDS011;13829;48.990;8.346;2022-12-07T04:57:20;15.90;;;11.67;;
5054;SDS011;13829;48.990;8.346;2022-12-07T04:59:47;15.27;;;11.43;;
5054;SDS011;13829;48.990;8.346;2022-12-07T05:02:14;15.20;;;11.53;;
5054;SDS011;13829;48.990;8.346;2022-12-07T05:04:41;15.77;;;11.70;;
5054;SDS011;13829;48.990;8.346;2022-12-07T05:07:08;18.73;;;12.83;;
5054;SDS011;13829;48.990;8.346;2022-12-07T05:09:35;16.80;;;11.90;;
5054;SDS011;13829;48.990;8.346;2022-12-07T05:12:03;17.17;;;12.77;;
5054;SDS011;13829;48.990;8.346;2022-12-07T05:14:30;15.43;;;12.03;;
5054;SDS011;13829;48.990;8.346;2022-12-07T05:16:57;16.43;;;12.10;;
5054;SDS011;13829;48.990;8.346;2022-12-07T05:19:24;15.37;;;11.27;;
5054;SDS011;13829;48.990;8.346;2022-12-07T05:21:51;14.30;;;11.73;;
5054;SDS011;13829;48.990;8.346;2022-12-07T05:24:18;15.50;;;11.73;;
5054;SDS011;13829;48.990;8.346;2022-12-07T05:26:45;14.03;;;11.80;;
5054;SDS011;13829;48.990;8.346;2022-12-07T05:29:14;20.33;;;13.70;;
5054;SDS011;13829;48.990;8.346;2022-12-07T05:31:43;16.87;;;11.73;;
5054;SDS011;13829;48.990;8.346;2022-12-07T05:34:10;15.67;;;11.47;;
5054;SDS011;13829;48.990;8.346;2022-12-07T05:36:37;16.87;;;11.97;;
5054;SDS011;13829;48.990;8.346;2022-12-07T05:39:04;17.03;;;11.57;;
5054;SDS011;13829;48.990;8.346;2022-12-07T05:41:32;15.13;;;11.87;;
5054;SDS011;13829;48.990;8.346;2022-12-07T05:44:17;15.33;;;11.33;;
5054;SDS011;13829;48.990;8.346;2022-12-07T05:46:44;13.13;;;10.90;;
5054;SDS011;13829;48.990;8.346;2022-12-07T05:49:11;14.83;;;11.30;;
5054;SDS011;13829;48.990;8.346;2022-12-07T05:51:38;16.47;;;12.43;;
5054;SDS011;13829;48.990;8.346;2022-12-07T05:54:05;15.63;;;11.27;;
5054;SDS011;13829;48.990;8.346;2022-12-07T05:56:32;16.33;;;12.33;;
5054;SDS011;13829;48.990;8.346;2022-12-07T05:58:59;16.43;;;12.07;;
5054;SDS011;13829;48.990;8.346;2022-12-07T06:01:45;15.40;;;11.03;;
5054;SDS011;13829;48.990;8.346;2022-12-07T06:04:12;16.43;;;11.50;;
5054;SDS011;13829;48.990;8.346;2022-12-07T06:06:39;15.87;;;12.23;;
5054;SDS011;13829;48.990;8.346;2022-12-07T06:09:06;16.83;;;12.03;;
5054;SDS011;13829;48.990;8.346;2022-12-07T06:11:33;16.10;;;11.57;;
5054;SDS011;13829;48.990;8.346;2022-12-07T06:14:18;16.67;;;11.70;;
5054;SDS011;13829;48.990;8.346;2022-12-07T06:16:46;16.47;;;11.97;;
5054;SDS011;13829;48.990;8.346;2022-12-07T06:19:13;16.57;;;12.07;;
5054;SDS011;13829;48.990;8.346;2022-12-07T06:21:40;16.33;;;12.10;;
5054;SDS011;13829;48.990;8.346;2022-12-07T06:24:08;14.50;;;11.03;;
5054;SDS011;13829;48.990;8.346;2022-12-07T06:26:37;14.57;;;11.57;;
5054;SDS011;13829;48.990;8.346;2022-12-07T06:29:05;15.23;;;11.53;;
5054;SDS011;13829;48.990;8.346;2022-12-07T06:31:32;15.37;;;12.03;;
5054;SDS011;13829;48.990;8.346;2022-12-07T06:34:00;15.03;;;11.87;;
5054;SDS011;13829;48.990;8.346;2022-12-07T06:36:29;14.20;;;11.10;;
5054;SDS011;13829;48.990;8.346;2022-12-07T06:38:57;15.00;;;11.60;;
5054;SDS011;13829;48.990;8.346;2022-12-07T06:41:24;15.80;;;12.10;;
5054;SDS011;13829;48.990;8.346;2022-12-07T06:43:51;17.50;;;11.83;;
5054;SDS011;13829;48.990;8.346;2022-12-07T06:46:19;15.60;;;11.03;;
5054;SDS011;13829;48.990;8.346;2022-12-07T06:48:46;14.93;;;12.07;;
5054;SDS011;13829;48.990;8.346;2022-12-07T06:51:14;14.00;;;11.00;;
5054;SDS011;13829;48.990;8.346;2022-12-07T06:53:41;17.37;;;11.93;;
5054;SDS011;13829;48.990;8.346;2022-12-07T06:56:08;16.23;;;12.07;;
5054;SDS011;13829;48.990;8.346;2022-12-07T06:58:35;13.90;;;10.80;;
5054;SDS011;13829;48.990;8.346;2022-12-07T07:01:02;16.60;;;11.23;;
5054;SDS011;13829;48.990;8.346;2022-12-07T07:03:34;15.67;;;11.30;;
5054;SDS011;13829;48.990;8.346;2022-12-07T07:06:01;15.70;;;12.03;;
5054;SDS011;13829;48.990;8.346;2022-12-07T07:08:29;17.60;;;11.07;;
5054;SDS011;13829;48.990;8.346;2022-12-07T07:10:56;15.70;;;11.87;;
5054;SDS011;13829;48.990;8.346;2022-12-07T07:13:23;15.87;;;11.07;;
5054;SDS011;13829;48.990;8.346;2022-12-07T07:15:50;16.83;;;11.77;;
5054;SDS011;13829;48.990;8.346;2022-12-07T07:18:17;14.23;;;10.93;;
5054;SDS011;13829;48.990;8.346;2022-12-07T07:20:44;16.47;;;11.37;;
5054;SDS011;13829;48.990;8.346;2022-12-07T07:23:11;14.57;;;10.67;;
5054;SDS011;13829;48.990;8.346;2022-12-07T07:25:39;14.20;;;11.13;;
5054;SDS011;13829;48.990;8.346;2022-12-07T07:28:06;17.47;;;12.27;;
5054;SDS011;13829;48.990;8.346;2022-12-07T07:30:33;16.77;;;10.90;;
5054;SDS011;13829;48.990;8.346;2022-12-07T07:33:01;16.00;;;11.47;;
5054;SDS011;13829;48.990;8.346;2022-12-07T07:35:30;15.67;;;12.00;;
5054;SDS011;13829;48.990;8.346;2022-12-07T07:37:58;15.47;;;12.07;;
5054;SDS011;13829;48.990;8.346;2022-12-07T07:40:26;15.70;;;11.40;;
5054;SDS011;13829;48.990;8.346;2022-12-07T07:42:55;15.97;;;11.73;;
5054;SDS011;13829;48.990;8.346;2022-12-07T07:45:23;14.83;;;10.47;;
5054;SDS011;13829;48.990;8.346;2022-12-07T07:47:52;15.67;;;11.67;;
5054;SDS011;13829;48.990;8.346;2022-12-07T07:50:20;16.27;;;11.80;;
5054;SDS011;13829;48.990;8.346;2022-12-07T07:52:47;18.43;;;11.67;;
5054;SDS011;13829;48.990;8.346;2022-12-07T07:55:14;14.57;;;10.97;;
5054;SDS011;13829;48.990;8.346;2022-12-07T07:57:41;15.40;;;11.40;;
5054;SDS011;13829;48.990;8.346;2022-12-07T08:00:11;17.70;;;11.33;;
5054;SDS011;13829;48.990;8.346;2022-12-07T08:02:40;15.67;;;11.30;;
5054;SDS011;13829;48.990;8.346;2022-12-07T08:05:08;17.20;;;10.97;;
5054;SDS011;13829;48.990;8.346;2022-12-07T08:07:36;14.20;;;11.17;;
5054;SDS011;13829;48.990;8.346;2022-12-07T08:10:04;14.70;;;10.80;;
5054;SDS011;13829;48.990;8.346;2022-12-07T08:12:35;16.37;;;10.40;;
5054;SDS011;13829;48.990;8.346;2022-12-07T08:15:25;14.57;;;10.10;;
5054;SDS011;13829;48.990;8.346;2022-12-07T08:17:54;13.33;;;9.40;;
5054;SDS011;13829;48.990;8.346;2022-12-07T08:20:21;14.13;;;10.30;;
5054;SDS011;13829;48.990;8.346;2022-12-07T08:22:49;15.47;;;11.17;;
5054;SDS011;13829;48.990;8.346;2022-12-07T08:25:16;12.40;;;9.67;;
5054;SDS011;13829;48.990;8.346;2022-12-07T08:27:43;13.03;;;9.53;;
5054;SDS011;13829;48.990;8.346;2022-12-07T08:30:10;12.27;;;9.47;;
5054;SDS011;13829;48.990;8.346;2022-12-07T08:32:39;15.03;;;9.80;;
5054;SDS011;13829;48.990;8.346;2022-12-07T08:37:42;14.57;;;10.53;;
5054;SDS011;13829;48.990;8.346;2022-12-07T08:40:10;14.33;;;9.33;;
5054;SDS011;13829;48.990;8.346;2022-12-07T08:42:40;14.70;;;9.60;;
5054;SDS011;13829;48.990;8.346;2022-12-07T08:45:10;14.07;;;9.53;;
5054;SDS011;13829;48.990;8.346;2022-12-07T08:47:41;13.87;;;9.73;;
5054;SDS011;13829;48.990;8.346;2022-12-07T08:50:12;13.03;;;10.03;;
5054;SDS011;13829;48.990;8.346;2022-12-07T08:52:40;13.60;;;9.80;;
5054;SDS011;13829;48.990;8.346;2022-12-07T08:55:08;12.63;;;9.40;;
5054;SDS011;13829;48.990;8.346;2022-12-07T08:57:38;12.00;;;9.70;;
5054;SDS011;13829;48.990;8.346;2022-12-07T09:00:08;13.97;;;9.33;;
5054;SDS011;13829;48.990;8.346;2022-12-07T09:02:36;13.63;;;9.27;;
5054;SDS011;13829;48.990;8.346;2022-12-07T09:05:05;15.20;;;11.00;;
5054;SDS011;13829;48.990;8.346;2022-12-07T09:07:32;14.50;;;10.10;;
5054;SDS011;13829;48.990;8.346;2022-12-07T09:10:00;13.70;;;9.80;;
5054;SDS011;13829;48.990;8.346;2022-12-07T09:12:28;12.87;;;9.23;;
5054;SDS011;13829;48.990;8.346;2022-12-07T09:14:55;12.73;;;9.70;;
5054;SDS011;13829;48.990;8.346;2022-12-07T09:17:22;13.00;;;9.60;;
5054;SDS011;13829;48.990;8.346;2022-12-07T09:19:49;13.63;;;9.53;;
5054;SDS011;13829;48.990;8.346;2022-12-07T09:22:17;11.60;;;8.90;;
5054;SDS011;13829;48.990;8.346;2022-12-07T09:24:44;12.87;;;8.93;;
5054;SDS011;13829;48.990;8.346;2022-12-07T09:27:11;13.87;;;9.77;;
5054;SDS011;13829;48.990;8.346;2022-12-07T09:29:39;13.00;;;10.03;;
5054;SDS011;13829;48.990;8.346;2022-12-07T09:32:05;11.83;;;9.63;;
5054;SDS011;13829;48.990;8.346;2022-12-07T09:34:33;11.73;;;9.23;;
5054;SDS011;13829;48.990;8.346;2022-12-07T09:37:00;11.83;;;9.07;;
5054;SDS011;13829;48.990;8.346;2022-12-07T09:39:30;16.13;;;9.70;;
5054;SDS011;13829;48.990;8.346;2022-12-07T09:41:57;12.87;;;9.30;;
5054;SDS011;13829;48.990;8.346;2022-12-07T09:44:28;12.57;;;10.23;;
5054;SDS011;13829;48.990;8.346;2022-12-07T09:46:55;14.33;;;10.10;;
5054;SDS011;13829;48.990;8.346;2022-12-07T09:49:24;14.17;;;9.03;;
5054;SDS011;13829;48.990;8.346;2022-12-07T09:52:02;13.30;;;9.67;;
5054;SDS011;13829;48.990;8.346;2022-12-07T09:54:46;13.77;;;9.37;;
5054;SDS011;13829;48.990;8.346;2022-12-07T09:57:16;12.83;;;9.50;;
5054;SDS011;13829;48.990;8.346;2022-12-07T09:59:46;12.07;;;9.40;;
5054;SDS011;13829;48.990;8.346;2022-12-07T10:02:28;12.43;;;9.50;;
5054;SDS011;13829;48.990;8.346;2022-12-07T10:05:04;13.30;;;9.47;;
5054;SDS011;13829;48.990;8.346;2022-12-07T10:07:37;11.63;;;9.07;;
5054;SDS011;13829;48.990;8.346;2022-12-07T10:10:09;11.87;;;9.53;;
5054;SDS011;13829;48.990;8.346;2022-12-07T10:12:55;12.50;;;9.07;;
5054;SDS011;13829;48.990;8.346;2022-12-07T10:15:40;13.17;;;9.43;;
5054;SDS011;13829;48.990;8.346;2022-12-07T10:18:19;14.77;;;9.73;;
5054;SDS011;13829;48.990;8.346;2022-12-07T10:21:01;13.37;;;8.93;;
5054;SDS011;13829;48.990;8.346;2022-12-07T10:23:39;12.13;;;8.83;;
5054;SDS011;13829;48.990;8.346;2022-12-07T10:26:25;12.40;;;9.47;;
5054;SDS011;13829;48.990;8.346;2022-12-07T10:28:58;13.40;;;9.07;;
5054;SDS011;13829;48.990;8.346;2022-12-07T10:31:30;13.27;;;9.27;;
5054;SDS011;13829;48.990;8.346;2022-12-07T10:33:58;13.40;;;8.77;;
5054;SDS011;13829;48.990;8.346;2022-12-07T10:36:29;11.87;;;8.97;;
5054;SDS011;13829;48.990;8.346;2022-12-07T10:39:03;11.97;;;9.20;;
5054;SDS011;13829;48.990;8.346;2022-12-07T10:41:48;15.97;;;9.83;;
5054;SDS011;13829;48.990;8.346;2022-12-07T10:44:22;13.77;;;8.90;;
5054;SDS011;13829;48.990;8.346;2022-12-07T10:46:58;12.33;;;8.60;;
5054;SDS011;13829;48.990;8.346;2022-12-07T10:49:47;13.57;;;9.33;;
5054;SDS011;13829;48.990;8.346;2022-12-07T10:52:54;12.90;;;9.37;;
5054;SDS011;13829;48.990;8.346;2022-12-07T10:55:47;13.93;;;8.87;;
5054;SDS011;13829;48.990;8.346;2022-12-07T10:58:45;12.37;;;8.97;;
5054;SDS011;13829;48.990;8.346;2022-12-07T11:01:26;12.93;;;9.23;;
5054;SDS011;13829;48.990;8.346;2022-12-07T11:04:03;14.03;;;10.03;;
5054;SDS011;13829;48.990;8.346;2022-12-07T11:06:57;12.90;;;9.47;;
5054;SDS011;13829;48.990;8.346;2022-12-07T11:09:42;12.30;;;9.47;;
5054;SDS011;13829;48.990;8.346;2022-12-07T11:12:29;15.00;;;9.80;;
5054;SDS011;13829;48.990;8.346;2022-12-07T11:15:15;13.20;;;9.37;;
5054;SDS011;13829;48.990;8.346;2022-12-07T11:17:52;11.93;;;8.93;;
5054;SDS011;13829;48.990;8.346;2022-12-07T11:20:34;14.20;;;10.43;;
5054;SDS011;13829;48.990;8.346;2022-12-07T11:23:15;12.40;;;9.37;;
5054;SDS011;13829;48.990;8.346;2022-12-07T11:25:53;13.57;;;9.90;;
5054;SDS011;13829;48.990;8.346;2022-12-07T11:28:39;15.17;;;10.83;;
5054;SDS011;13829;48.990;8.346;2022-12-07T11:31:31;13.03;;;9.93;;
5054;SDS011;13829;48.990;8.346;2022-12-07T11:34:15;14.43;;;10.43;;
5054;SDS011;13829;48.990;8.346;2022-12-07T11:36:57;15.43;;;10.53;;
5054;SDS011;13829;48.990;8.346;2022-12-07T11:39:30;15.57;;;10.60;;
5054;SDS011;13829;48.990;8.346;2022-12-07T11:42:04;13.83;;;10.77;;
5054;SDS011;13829;48.990;8.346;2022-12-07T11:44:39;16.30;;;10.37;;
5054;SDS011;13829;48.990;8.346;2022-12-07T11:47:20;12.30;;;9.97;;
5054;SDS011;13829;48.990;8.346;2022-12-07T11:49:56;15.33;;;10.77;;
5054;SDS011;13829;48.990;8.346;2022-12-07T11:52:42;17.43;;;11.07;;
5054;SDS011;13829;48.990;8.346;2022-12-07T11:55:19;14.90;;;10.17;;
5054;SDS011;13829;48.990;8.346;2022-12-07T11:57:56;16.73;;;11.03;;
5054;SDS011;13829;48.990;8.346;2022-12-07T12:00:34;13.27;;;9.83;;
5054;SDS011;13829;48.990;8.346;2022-12-07T12:03:07;13.33;;;9.90;;
5054;SDS011;13829;48.990;8.346;2022-12-07T12:05:41;16.20;;;10.73;;
5054;SDS011;13829;48.990;8.346;2022-12-07T12:08:12;14.27;;;10.63;;
5054;SDS011;13829;48.990;8.346;2022-12-07T12:10:47;12.93;;;10.00;;
5054;SDS011;13829;48.990;8.346;2022-12-07T12:13:28;15.87;;;9.73;;
5054;SDS011;13829;48.990;8.346;2022-12-07T12:16:35;17.83;;;11.03;;
5054;SDS011;13829;48.990;8.346;2022-12-07T12:19:43;14.77;;;10.37;;
5054;SDS011;13829;48.990;8.346;2022-12-07T12:22:32;15.43;;;10.70;;
5054;SDS011;13829;48.990;8.346;2022-12-07T12:25:06;15.20;;;11.00;;
5054;SDS011;13829;48.990;8.346;2022-12-07T12:27:46;13.57;;;9.87;;
5054;SDS011;13829;48.990;8.346;2022-12-07T12:33:04;15.47;;;10.63;;
5054;SDS011;13829;48.990;8.346;2022-12-07T12:35:42;15.43;;;10.50;;
5054;SDS011;13829;48.990;8.346;2022-12-07T12:38:27;16.37;;;10.77;;
5054;SDS011;13829;48.990;8.346;2022-12-07T12:40:59;15.23;;;10.93;;
5054;SDS011;13829;48.990;8.346;2022-12-07T12:43:40;15.50;;;11.23;;
5054;SDS011;13829;48.990;8.346;2022-12-07T12:46:36;14.93;;;10.90;;
5054;SDS011;13829;48.990;8.346;2022-12-07T12:55:19;16.53;;;10.93;;
5054;SDS011;13829;48.990;8.346;2022-12-07T13:01:44;15.03;;;9.77;;
5054;SDS011;13829;48.990;8.346;2022-12-07T13:04:16;13.80;;;10.30;;
5054;SDS011;13829;48.990;8.346;2022-12-07T13:06:51;15.80;;;11.30;;
5054;SDS011;13829;48.990;8.346;2022-12-07T13:09:21;13.57;;;10.17;;
5054;SDS011;13829;48.990;8.346;2022-12-07T13:11:57;15.33;;;10.97;;
5054;SDS011;13829;48.990;8.346;2022-12-07T13:20:45;13.77;;;9.60;;
5054;SDS011;13829;48.990;8.346;2022-12-07T13:23:29;13.67;;;10.07;;
5054;SDS011;13829;48.990;8.346;2022-12-07T13:26:16;13.23;;;10.20;;
5054;SDS011;13829;48.990;8.346;2022-12-07T13:28:46;12.57;;;9.67;;
5054;SDS011;13829;48.990;8.346;2022-12-07T13:31:19;16.70;;;10.87;;
5054;SDS011;13829;48.990;8.346;2022-12-07T13:33:57;14.13;;;10.37;;
5054;SDS011;13829;48.990;8.346;2022-12-07T13:36:26;13.47;;;10.00;;
5054;SDS011;13829;48.990;8.346;2022-12-07T13:39:09;15.80;;;11.03;;
5054;SDS011;13829;48.990;8.346;2022-12-07T13:41:49;14.30;;;10.50;;
5054;SDS011;13829;48.990;8.346;2022-12-07T13:44:18;12.27;;;9.67;;
5054;SDS011;13829;48.990;8.346;2022-12-07T13:46:48;12.97;;;9.23;;
5054;SDS011;13829;48.990;8.346;2022-12-07T13:49:24;12.77;;;9.47;;
5054;SDS011;13829;48.990;8.346;2022-12-07T13:51:54;14.03;;;10.10;;
5054;SDS011;13829;48.990;8.346;2022-12-07T13:54:43;13.33;;;9.63;;
5054;SDS011;13829;48.990;8.346;2022-12-07T13:57:13;13.53;;;9.97;;
5054;SDS011;13829;48.990;8.346;2022-12-07T13:59:40;12.40;;;9.40;;
5054;SDS011;13829;48.990;8.346;2022-12-07T14:02:17;14.33;;;10.90;;
5054;SDS011;13829;48.990;8.346;2022-12-07T14:04:48;15.07;;;9.70;;
5054;SDS011;13829;48.990;8.346;2022-12-07T14:07:20;11.97;;;9.40;;
5054;SDS011;13829;48.990;8.346;2022-12-07T14:09:54;14.53;;;9.73;;
5054;SDS011;13829;48.990;8.346;2022-12-07T14:12:27;15.10;;;9.20;;
5054;SDS011;13829;48.990;8.346;2022-12-07T14:14:56;12.10;;;9.07;;
5054;SDS011;13829;48.990;8.346;2022-12-07T14:17:27;12.13;;;8.53;;
5054;SDS011;13829;48.990;8.346;2022-12-07T14:19:54;12.67;;;9.93;;
5054;SDS011;13829;48.990;8.346;2022-12-07T14:22:26;10.17;;;7.97;;
5054;SDS011;13829;48.990;8.346;2022-12-07T14:25:00;12.13;;;8.53;;
5054;SDS011;13829;48.990;8.346;2022-12-07T14:27:49;13.50;;;9.43;;
5054;SDS011;13829;48.990;8.346;2022-12-07T14:30:22;12.53;;;8.60;;
5054;SDS011;13829;48.990;8.346;2022-12-07T14:32:53;11.30;;;8.27;;
5054;SDS011;13829;48.990;8.346;2022-12-07T14:35:25;8.77;;;7.13;;
5054;SDS011;13829;48.990;8.346;2022-12-07T14:37:53;9.80;;;7.57;;
5054;SDS011;13829;48.990;8.346;2022-12-07T14:40:21;9.23;;;7.40;;
5054;SDS011;13829;48.990;8.346;2022-12-07T14:42:51;10.33;;;7.60;;
5054;SDS011;13829;48.990;8.346;2022-12-07T14:45:23;9.93;;;7.53;;
5054;SDS011;13829;48.990;8.346;2022-12-07T14:47:50;10.77;;;8.10;;
5054;SDS011;13829;48.990;8.346;2022-12-07T14:50:18;10.90;;;7.77;;
5054;SDS011;13829;48.990;8.346;2022-12-07T14:52:48;11.63;;;9.57;;
5054;SDS011;13829;48.990;8.346;2022-12-07T14:55:22;11.73;;;9.03;;
5054;SDS011;13829;48.990;8.346;2022-12-07T14:57:53;9.97;;;7.40;;
5054;SDS011;13829;48.990;8.346;2022-12-07T15:00:21;13.07;;;8.77;;
5054;SDS011;13829;48.990;8.346;2022-12-07T15:02:51;10.50;;;8.47;;
5054;SDS011;13829;48.990;8.346;2022-12-07T15:05:18;10.60;;;8.63;;
5054;SDS011;13829;48.990;8.346;2022-12-07T15:07:46;10.93;;;8.87;;
5054;SDS011;13829;48.990;8.346;2022-12-07T15:10:16;11.67;;;9.23;;
5054;SDS011;13829;48.990;8.346;2022-12-07T15:12:45;12.20;;;8.90;;
5054;SDS011;13829;48.990;8.346;2022-12-07T15:15:14;11.33;;;8.77;;
5054;SDS011;13829;48.990;8.346;2022-12-07T15:17:42;10.93;;;8.73;;
5054;SDS011;13829;48.990;8.346;2022-12-07T15:20:10;12.87;;;8.53;;
5054;SDS011;13829;48.990;8.346;2022-12-07T15:22:39;11.87;;;8.40;;
5054;SDS011;13829;48.990;8.346;2022-12-07T15:25:06;10.77;;;9.00;;
5054;SDS011;13829;48.990;8.346;2022-12-07T15:27:34;9.23;;;7.80;;
5054;SDS011;13829;48.990;8.346;2022-12-07T15:30:01;12.27;;;8.67;;
5054;SDS011;13829;48.990;8.346;2022-12-07T15:32:31;11.17;;;7.87;;
5054;SDS011;13829;48.990;8.346;2022-12-07T15:34:58;11.57;;;8.27;;